Time;durP1;ratioP1;P1;durP2;ratioP2;P2;SDS_P1;SDS_P2;PMS_P1;PMS_P2;Temp;Humidity;BMP_temperature;BMP_pressure;BME280_temperature;BME280_humidity;BME280_pressure;Samples;Min_cycle;Max_cycle;Signal;HPM_P1;HPM_P2
2022/09/27 00:00:06;;;;;;;1.87;1.67;;;;;;;23.18;54.30;95840.47;5024218;28;20194;-23
2022/09/27 00:02:33;;;;;;;1.60;1.50;;;;;;;23.25;54.10;95851.59;5031152;28;20209;-23
2022/09/27 00:04:59;;;;;;;1.70;1.60;;;;;;;23.21;54.12;95831.94;5030029;28;20225;-22
2022/09/27 00:07:26;;;;;;;1.63;1.53;;;;;;;23.25;54.04;95842.22;5029800;28;20206;-24
2022/09/27 00:09:52;;;;;;;1.70;1.60;;;;;;;23.19;54.28;95824.25;5032494;28;20236;-23
2022/09/27 00:12:19;;;;;;;1.70;1.60;;;;;;;23.24;54.19;95837.09;5032406;28;20449;-22
2022/09/27 00:14:45;;;;;;;1.93;1.73;;;;;;;23.24;53.87;95837.09;5030399;28;20221;-22
2022/09/27 00:17:12;;;;;;;1.70;1.60;;;;;;;23.24;54.16;95825.09;5031093;28;20271;-23
2022/09/27 00:19:38;;;;;;;1.73;1.63;;;;;;;23.24;54.25;95827.66;5032871;28;20200;-22
2022/09/27 00:22:05;;;;;;;1.80;1.70;;;;;;;23.25;54.31;95828.53;5040372;28;20223;-23
2022/09/27 00:24:32;;;;;;;1.60;1.50;;;;;;;23.24;54.27;95814.03;5022447;28;20218;-23
2022/09/27 00:26:58;;;;;;;1.60;1.50;;;;;;;23.24;54.18;95819.16;5031648;28;20209;-23
2022/09/27 00:29:25;;;;;;;1.50;1.40;;;;;;;23.25;54.09;95816.56;5029642;28;20221;-22
2022/09/27 00:31:51;;;;;;;1.60;1.50;;;;;;;23.25;54.41;95814.00;5032292;28;20580;-22
2022/09/27 00:34:19;;;;;;;1.60;1.50;;;;;;;23.22;54.19;95806.31;5032091;28;20221;-23
2022/09/27 00:36:46;;;;;;;1.70;1.60;;;;;;;23.21;54.15;95801.19;5031829;28;20214;-23
2022/09/27 00:39:13;;;;;;;1.80;1.70;;;;;;;23.25;54.16;95802.91;5029771;28;20198;-23
2022/09/27 00:41:41;;;;;;;1.73;1.63;;;;;;;23.24;54.06;95799.47;5031440;28;20284;-22
2022/09/27 00:44:25;;;;;;;1.63;1.53;;;;;;;23.25;54.13;95800.34;5037833;28;20225;-22
2022/09/27 00:47:07;;;;;;;1.60;1.50;;;;;;;23.25;54.16;95796.06;5031987;28;20202;-23
2022/09/27 00:49:33;;;;;;;1.60;1.50;;;;;;;23.25;53.90;95802.91;5030213;28;20229;-23
2022/09/27 00:52:07;;;;;;;1.70;1.60;;;;;;;21.87;54.06;95565.28;5029842;28;20252;-23
2022/09/27 00:54:35;;;;;;;1.70;1.60;;;;;;;23.25;54.25;95796.06;5039144;28;20224;-23
2022/09/27 00:57:02;;;;;;;1.60;1.50;;;;;;;23.17;54.22;95784.97;5028784;28;20213;-23
2022/09/27 00:59:35;;;;;;;1.70;1.60;;;;;;;23.25;54.33;95793.50;5030750;28;20582;-23
2022/09/27 01:02:03;;;;;;;1.77;1.67;;;;;;;23.26;54.39;95791.78;5033903;28;20206;-22
2022/09/27 01:04:29;;;;;;;1.60;1.50;;;;;;;23.25;54.11;95788.38;5024443;28;20218;-22
2022/09/27 01:06:56;;;;;;;1.60;1.50;;;;;;;23.26;54.25;95781.53;5029405;28;20592;-23
2022/09/27 01:09:22;;;;;;;1.83;1.73;;;;;;;23.20;54.13;95772.13;5031476;28;20209;-23
2022/09/27 01:12:08;;;;;;;1.57;1.47;;;;;;;23.25;54.39;95782.41;5030817;28;20205;-23
2022/09/27 01:15:11;;;;;;;1.60;1.50;;;;;;;23.21;54.30;95775.56;5031299;28;20221;-23
2022/09/27 01:18:09;;;;;;;1.60;1.50;;;;;;;23.25;54.28;95790.94;5022058;28;20203;-23
2022/09/27 01:21:09;;;;;;;1.70;1.60;;;;;;;23.25;54.26;95777.28;5024085;28;20209;-22
2022/09/27 01:23:49;;;;;;;1.80;1.70;;;;;;;23.00;54.28;95732.06;5028750;28;20586;-22
2022/09/27 01:26:30;;;;;;;1.57;1.47;;;;;;;23.24;54.37;95770.44;5029553;28;20208;-22
2022/09/27 01:29:05;;;;;;;1.80;1.70;;;;;;;23.23;54.27;95776.38;5029576;28;20209;-23
2022/09/27 01:31:46;;;;;;;1.70;1.60;;;;;;;23.19;54.32;95772.16;5022641;28;20235;-23
2022/09/27 01:34:25;;;;;;;1.70;1.60;;;;;;;23.23;54.34;95764.44;5023326;28;20217;-23
2022/09/27 01:37:01;;;;;;;1.70;1.60;;;;;;;22.99;54.40;95715.88;5029426;28;20197;-23
2022/09/27 01:39:58;;;;;;;1.60;1.50;;;;;;;23.23;54.34;95759.31;5028804;28;20201;-23
2022/09/27 01:42:26;;;;;;;1.60;1.50;;;;;;;23.22;54.31;95752.50;5028408;28;20241;-23
2022/09/27 01:44:57;;;;;;;1.80;1.70;;;;;;;23.20;54.56;95740.53;5029621;28;20225;-23
2022/09/27 01:47:47;;;;;;;1.57;1.47;;;;;;;23.20;54.42;95743.09;5028247;28;20194;-23
2022/09/27 01:50:38;;;;;;;1.50;1.40;;;;;;;23.05;54.46;95713.28;5022986;28;20225;-23
2022/09/27 01:53:29;;;;;;;1.50;1.40;;;;;;;23.25;54.17;95751.66;5031572;28;20201;-23
2022/09/27 01:55:56;;;;;;;1.43;1.33;;;;;;;23.20;54.35;95737.97;5029429;28;20198;-23
2022/09/27 01:58:29;;;;;;;1.60;1.50;;;;;;;23.23;54.36;95743.94;5028553;28;20609;-23
2022/09/27 02:00:56;;;;;;;1.50;1.40;;;;;;;23.20;54.24;95740.53;5032160;28;20338;-22
2022/09/27 02:03:38;;;;;;;1.63;1.53;;;;;;;23.25;54.40;95742.25;5030864;28;20292;-22
2022/09/27 02:06:11;;;;;;;1.80;1.70;;;;;;;23.24;54.26;95729.44;5031357;28;20201;-23
2022/09/27 02:08:42;;;;;;;1.40;1.30;;;;;;;23.18;54.41;95724.31;5029718;28;20205;-22
2022/09/27 02:11:10;;;;;;;1.20;1.20;;;;;;;23.24;54.45;95735.41;5023896;28;20570;-23
2022/09/27 02:14:03;;;;;;;1.57;1.47;;;;;;;21.89;54.45;95505.59;5026547;28;20296;-23
2022/09/27 02:16:42;;;;;;;1.93;1.77;;;;;;;23.24;54.28;95725.16;5020395;28;20202;-22
2022/09/27 02:19:35;;;;;;;1.40;1.30;;;;;;;23.25;54.49;95726.00;5026560;28;20216;-23
2022/09/27 02:22:20;;;;;;;1.50;1.40;;;;;;;23.24;54.19;95722.59;5023914;28;20205;-23
2022/09/27 02:24:53;;;;;;;1.60;1.50;;;;;;;23.24;54.41;95708.94;5025098;28;20217;-23
2022/09/27 02:27:28;;;;;;;1.70;1.60;;;;;;;23.25;54.41;95705.50;5022911;28;20198;-23
2022/09/27 02:29:59;;;;;;;1.50;1.40;;;;;;;23.25;54.39;95700.38;5024291;28;20216;-22
2022/09/27 02:32:26;;;;;;;1.50;1.40;;;;;;;23.20;54.53;95690.13;5026494;28;20201;-23
2022/09/27 02:34:54;;;;;;;1.40;1.30;;;;;;;23.25;54.19;95685.00;5029980;28;20257;-23
2022/09/27 02:37:21;;;;;;;1.60;1.50;;;;;;;23.24;54.55;95680.75;5020014;28;20193;-23
2022/09/27 02:39:48;;;;;;;1.27;1.23;;;;;;;23.24;54.41;95688.44;5027128;28;20212;-23
2022/09/27 02:42:14;;;;;;;1.27;1.20;;;;;;;23.20;54.56;95681.59;5037572;28;20202;-23
2022/09/27 02:44:41;;;;;;;1.60;1.50;;;;;;;23.19;54.21;95680.75;5021972;28;20214;-22
2022/09/27 02:47:15;;;;;;;1.60;1.50;;;;;;;23.24;54.42;95686.72;5018688;28;20198;-22
2022/09/27 02:49:49;;;;;;;1.40;1.30;;;;;;;23.24;54.45;95685.88;5023876;28;20204;-22
2022/09/27 02:52:37;;;;;;;1.50;1.40;;;;;;;23.25;54.44;95687.56;5025079;28;20193;-22
2022/09/27 02:55:10;;;;;;;1.40;1.30;;;;;;;23.24;54.45;95684.16;5062985;23;20224;-31
2022/09/27 02:57:45;;;;;;;1.50;1.40;;;;;;;23.25;54.31;95679.88;5063239;28;20200;-31
2022/09/27 03:00:17;;;;;;;1.53;1.43;;;;;;;23.25;54.49;95672.19;5070858;28;20188;-31
2022/09/27 03:02:43;;;;;;;1.53;1.43;;;;;;;23.25;54.72;95679.88;5060119;28;20580;-31
2022/09/27 03:05:14;;;;;;;1.40;1.30;;;;;;;23.25;54.42;95672.19;5058095;28;20653;-31
2022/09/27 03:07:40;;;;;;;1.33;1.30;;;;;;;23.21;54.43;95673.06;5035797;28;20735;-31
2022/09/27 03:10:07;;;;;;;1.40;1.30;;;;;;;23.26;54.35;95676.44;5052789;28;20718;-31
2022/09/27 03:12:36;;;;;;;1.60;1.50;;;;;;;23.26;54.65;95671.31;5034240;28;20280;-31
2022/09/27 03:15:04;;;;;;;1.60;1.50;;;;;;;23.26;54.38;95679.88;5053188;28;20596;-31
2022/09/27 03:17:30;;;;;;;1.43;1.33;;;;;;;23.26;54.26;95677.31;5056152;28;20193;-31
2022/09/27 03:19:57;;;;;;;1.20;1.20;;;;;;;23.26;54.39;95674.75;5054137;28;20205;-31
2022/09/27 03:22:23;;;;;;;1.50;1.40;;;;;;;23.27;54.26;95673.03;5053779;28;20201;-31
2022/09/27 03:24:50;;;;;;;1.40;1.30;;;;;;;23.24;54.10;95665.38;5054364;28;20224;-31
2022/09/27 03:27:16;;;;;;;1.47;1.30;;;;;;;23.26;54.09;95664.50;5053445;28;20675;-31
2022/09/27 03:29:43;;;;;;;1.23;1.23;;;;;;;23.26;54.24;95669.63;5054723;28;20280;-31
2022/09/27 03:32:09;;;;;;;1.60;1.50;;;;;;;23.26;54.16;95664.50;5053970;28;20217;-31
2022/09/27 03:34:36;;;;;;;1.40;1.30;;;;;;;23.26;54.49;95672.19;5051824;28;20220;-31
2022/09/27 03:37:03;;;;;;;1.47;1.37;;;;;;;22.65;54.56;95559.84;5049420;28;20209;-31
2022/09/27 03:39:29;;;;;;;1.50;1.40;;;;;;;23.26;54.44;95672.19;5050058;28;20664;-31
2022/09/27 03:41:56;;;;;;;1.47;1.37;;;;;;;23.24;54.39;95666.22;5050003;28;20201;-31
2022/09/27 03:44:22;;;;;;;1.50;1.40;;;;;;;23.24;54.45;95665.38;5049457;28;20217;-31
2022/09/27 03:46:49;;;;;;;1.30;1.20;;;;;;;23.26;54.43;95659.38;5052441;28;20660;-31
2022/09/27 03:49:16;;;;;;;1.47;1.37;;;;;;;23.24;54.28;95657.69;5052895;28;20215;-31
2022/09/27 03:51:43;;;;;;;1.57;1.47;;;;;;;23.26;54.35;95653.38;5052946;28;20216;-31
2022/09/27 03:54:09;;;;;;;1.50;1.40;;;;;;;23.26;54.39;95653.38;5052951;28;20760;-31
2022/09/27 03:56:36;;;;;;;1.20;1.20;;;;;;;23.17;54.46;95640.59;5049988;28;20626;-31
2022/09/27 03:59:02;;;;;;;1.10;1.10;;;;;;;23.25;54.24;95650.00;5051042;28;20283;-31
2022/09/27 04:01:29;;;;;;;1.20;1.20;;;;;;;23.26;54.31;95648.25;5041480;28;20208;-31
2022/09/27 04:03:56;;;;;;;1.50;1.40;;;;;;;23.25;54.52;95644.88;5046160;28;20597;-31
2022/09/27 04:06:22;;;;;;;1.40;1.30;;;;;;;23.21;54.42;95639.75;5047781;28;20579;-31
2022/09/27 04:08:49;;;;;;;1.50;1.40;;;;;;;23.25;54.46;95647.44;5052540;28;20228;-31
2022/09/27 04:11:16;;;;;;;1.40;1.30;;;;;;;23.25;54.46;95646.56;5050534;28;20719;-31
2022/09/27 04:13:43;;;;;;;1.20;1.20;;;;;;;23.26;54.60;95646.56;5046369;28;20198;-31
2022/09/27 04:16:09;;;;;;;1.50;1.40;;;;;;;23.25;54.44;95644.00;5047142;28;20747;-31
2022/09/27 04:18:36;;;;;;;1.40;1.30;;;;;;;23.25;54.10;95644.88;5048033;28;20197;-31
2022/09/27 04:21:03;;;;;;;1.37;1.27;;;;;;;23.27;54.51;95649.97;5042075;28;20204;-31
2022/09/27 04:23:29;;;;;;;1.40;1.30;;;;;;;23.25;54.92;95642.31;5045103;28;20193;-31
2022/09/27 04:25:56;;;;;;;1.40;1.30;;;;;;;23.26;54.80;95655.94;5044269;28;20193;-31
2022/09/27 04:28:22;;;;;;;1.30;1.20;;;;;;;23.26;54.39;95644.00;5048621;28;20202;-31
2022/09/27 04:30:49;;;;;;;1.17;1.13;;;;;;;23.26;54.07;95649.13;5049052;28;20236;-31
2022/09/27 04:33:16;;;;;;;1.17;1.10;;;;;;;23.27;54.53;95653.38;5046513;28;20198;-31
2022/09/27 04:38:28;;;;;;;1.17;1.17;;;;;;;23.26;54.48;95649.13;5047423;28;20790;-31
2022/09/27 04:40:54;;;;;;;1.20;1.20;;;;;;;23.21;54.56;95643.13;5039714;28;20601;-31
2022/09/27 04:43:21;;;;;;;1.20;1.10;;;;;;;23.26;54.52;95651.69;5043776;28;20559;-31
2022/09/27 04:45:47;;;;;;;1.40;1.30;;;;;;;23.23;54.37;95640.56;5047082;28;20224;-31
2022/09/27 04:48:26;;;;;;;1.50;1.40;;;;;;;23.27;54.67;95650.81;5047829;28;20254;-31
2022/09/27 04:50:57;;;;;;;1.40;1.30;;;;;;;23.28;54.48;95646.53;5048272;28;20224;-31
2022/09/27 04:53:24;;;;;;;1.20;1.20;;;;;;;23.22;54.71;95641.44;5043903;28;20200;-31
2022/09/27 04:55:52;;;;;;;1.30;1.20;;;;;;;23.23;54.69;95646.53;5041886;28;20248;-31
2022/09/27 04:58:18;;;;;;;1.30;1.20;;;;;;;23.28;54.49;95661.91;5039526;28;20198;-31
2022/09/27 05:00:46;;;;;;;1.30;1.20;;;;;;;23.26;54.57;95666.19;5045063;28;20948;-31
2022/09/27 05:03:13;;;;;;;1.40;1.30;;;;;;;23.28;54.49;95672.19;5040303;28;20205;-31
2022/09/27 05:05:40;;;;;;;1.30;1.20;;;;;;;23.28;54.40;95670.47;5044749;28;20304;-31
2022/09/27 05:08:07;;;;;;;1.57;1.47;;;;;;;23.28;54.50;95688.41;5043239;28;20196;-31
2022/09/27 05:10:33;;;;;;;1.47;1.37;;;;;;;23.28;54.67;95688.41;5057204;28;20220;-31
2022/09/27 05:13:00;;;;;;;1.50;1.40;;;;;;;23.28;54.18;95687.56;5040753;28;20215;-31
2022/09/27 05:15:26;;;;;;;1.40;1.30;;;;;;;23.27;54.49;95689.25;5049579;28;20224;-31
2022/09/27 05:17:53;;;;;;;1.37;1.30;;;;;;;23.26;54.52;95681.56;5049535;28;20203;-31
2022/09/27 05:20:19;;;;;;;1.77;1.40;;;;;;;23.27;54.38;95688.41;5047928;28;20197;-31
2022/09/27 05:22:46;;;;;;;1.77;1.50;;;;;;;23.27;54.49;95689.25;5050743;28;20205;-31
2022/09/27 05:25:13;;;;;;;1.70;1.60;;;;;;;23.27;54.50;95694.38;5046326;28;20229;-31
2022/09/27 05:27:40;;;;;;;4.73;1.30;;;;;;;23.26;54.59;95690.13;5047584;28;20606;-31
2022/09/27 05:30:07;;;;;;;1.50;1.30;;;;;;;23.29;54.54;95699.50;5045225;28;20584;-31
2022/09/27 05:32:34;;;;;;;3.43;1.60;;;;;;;23.28;54.32;95706.34;5047977;28;20247;-31
2022/09/27 05:35:01;;;;;;;2.13;1.60;;;;;;;23.29;54.62;95707.19;5049223;28;20250;-31
2022/09/27 05:37:30;;;;;;;1.60;1.50;;;;;;;23.22;54.70;95701.22;5042702;28;20201;-31
2022/09/27 05:39:56;;;;;;;2.23;1.40;;;;;;;23.30;54.55;95721.72;5051443;28;20193;-31
2022/09/27 05:42:23;;;;;;;1.67;1.40;;;;;;;23.28;54.56;95726.84;5042893;28;20281;-31
2022/09/27 05:44:49;;;;;;;6.03;1.80;;;;;;;23.29;54.49;95733.69;5047770;28;20221;-31
2022/09/27 05:47:16;;;;;;;1.57;1.23;;;;;;;23.30;54.57;95740.50;5054683;28;20208;-31
2022/09/27 05:49:42;;;;;;;1.60;1.50;;;;;;;23.29;54.55;95740.50;5060999;28;20216;-31
2022/09/27 05:52:09;;;;;;;1.40;1.30;;;;;;;23.30;54.40;95743.06;5048401;28;20212;-31
2022/09/27 05:54:42;;;;;;;1.87;1.30;;;;;;;23.30;54.08;95735.38;5046047;28;20316;-31
2022/09/27 05:57:08;;;;;;;4.90;1.27;;;;;;;23.30;53.34;95755.88;5049330;28;20197;-31
2022/09/27 05:59:35;;;;;;;4.67;1.70;;;;;;;23.27;52.93;95742.25;5044900;28;20209;-31
2022/09/27 06:02:01;;;;;;;5.10;1.43;;;;;;;23.30;51.91;95739.66;5049892;28;20196;-31
2022/09/27 06:04:28;;;;;;;1.90;1.30;;;;;;;23.30;50.90;95744.78;5041029;28;20213;-31
2022/09/27 06:06:57;;;;;;;2.30;1.40;;;;;;;23.29;50.81;95743.94;5033665;28;20208;-31
2022/09/27 06:09:26;;;;;;;7.67;1.90;;;;;;;23.23;51.33;95743.06;5030454;28;20661;-31
2022/09/27 06:11:52;;;;;;;3.47;1.50;;;;;;;23.26;51.43;95749.06;5037576;28;20240;-31
2022/09/27 06:14:19;;;;;;;2.93;1.30;;;;;;;23.28;51.81;95761.88;5034124;28;20226;-31
2022/09/27 06:16:46;;;;;;;1.60;1.30;;;;;;;23.27;52.10;95761.00;5031835;28;20271;-31
2022/09/27 06:19:13;;;;;;;1.37;1.17;;;;;;;23.22;52.75;95760.19;5036808;28;20772;-31
2022/09/27 06:21:40;;;;;;;3.00;1.20;;;;;;;23.22;52.50;95759.31;5035265;28;20626;-31
2022/09/27 06:24:07;;;;;;;2.37;1.40;;;;;;;23.26;52.71;95779.81;5036038;28;20443;-31
2022/09/27 06:26:33;;;;;;;1.30;1.20;;;;;;;23.28;52.58;95782.38;5035824;28;20205;-31
2022/09/27 06:29:00;;;;;;;3.87;1.33;;;;;;;23.27;52.76;95784.09;5035602;28;20216;-31
2022/09/27 06:31:26;;;;;;;1.57;1.47;;;;;;;23.24;52.78;95785.84;5033727;28;20217;-31
2022/09/27 06:33:53;;;;;;;2.43;1.30;;;;;;;23.26;52.85;95790.06;5036614;28;20229;-31
2022/09/27 06:36:19;;;;;;;2.33;1.37;;;;;;;23.27;52.87;95790.94;5037124;28;20206;-31
2022/09/27 06:38:47;;;;;;;1.20;1.10;;;;;;;23.26;52.95;95790.06;5036954;28;20206;-31
2022/09/27 06:41:15;;;;;;;1.43;1.30;;;;;;;23.21;53.35;95776.41;5041332;28;20292;-31
2022/09/27 06:43:41;;;;;;;1.33;1.23;;;;;;;23.20;53.33;95784.94;5038365;28;20209;-31
2022/09/27 06:46:08;;;;;;;1.40;1.30;;;;;;;23.27;53.25;95798.63;5056517;28;20208;-31
2022/09/27 06:48:37;;;;;;;2.17;1.30;;;;;;;23.28;53.18;95802.88;5042040;28;20263;-31
2022/09/27 06:51:04;;;;;;;1.40;1.30;;;;;;;23.22;53.36;95796.06;5041280;28;20221;-31
2022/09/27 06:53:30;;;;;;;2.03;1.40;;;;;;;23.28;52.88;95800.31;5047877;28;20198;-31
2022/09/27 06:55:59;;;;;;;1.63;1.30;;;;;;;23.27;51.91;95802.03;5040981;28;20212;-30
2022/09/27 07:01:15;;;;;;;4.97;1.40;;;;;;;23.27;52.07;95801.19;5036424;28;20196;-31
2022/09/27 07:03:43;;;;;;;3.30;1.30;;;;;;;23.23;52.47;95797.75;5040142;28;20252;-31
2022/09/27 07:06:21;;;;;;;2.13;1.47;;;;;;;23.26;52.48;95797.78;5042037;28;20793;-31
2022/09/27 07:08:51;;;;;;;1.50;1.17;;;;;;;23.27;52.60;95802.03;5040247;28;20654;-31
2022/09/27 07:11:18;;;;;;;1.30;1.20;;;;;;;23.23;52.70;95800.31;5040813;28;20617;-31
2022/09/27 07:13:45;;;;;;;1.33;1.23;;;;;;;23.23;52.52;95795.19;5041434;28;20671;-31
2022/09/27 07:16:12;;;;;;;2.87;1.30;;;;;;;23.26;52.95;95797.78;5040778;28;20212;-31
2022/09/27 07:18:40;;;;;;;1.80;1.30;;;;;;;23.24;53.21;95799.47;5038870;28;20210;-31
2022/09/27 07:21:07;;;;;;;1.30;1.20;;;;;;;23.25;53.21;95801.19;5042544;28;20675;-31
2022/09/27 07:23:35;;;;;;;1.50;1.20;;;;;;;23.26;53.19;95810.59;5039989;28;20209;-31
2022/09/27 07:26:07;;;;;;;1.73;1.40;;;;;;;23.21;53.29;95803.75;5042989;28;20212;-31
2022/09/27 07:28:33;;;;;;;3.20;1.30;;;;;;;23.27;53.20;95814.00;5042407;28;20206;-31
2022/09/27 07:31:01;;;;;;;1.30;1.20;;;;;;;23.26;53.17;95819.97;5039677;28;20238;-31
2022/09/27 07:33:28;;;;;;;4.53;1.53;;;;;;;23.26;52.65;95820.84;5040655;28;20212;-31
2022/09/27 07:35:55;;;;;;;3.43;1.50;;;;;;;23.26;52.69;95820.84;5037419;28;20409;-31
2022/09/27 07:38:21;;;;;;;2.40;1.30;;;;;;;23.26;52.78;95827.66;5038637;28;20201;-31
2022/09/27 07:40:48;;;;;;;1.37;1.23;;;;;;;23.25;52.70;95834.53;5033608;28;20204;-31
2022/09/27 07:43:16;;;;;;;4.20;1.50;;;;;;;23.25;52.75;95834.53;5038491;28;20251;-31
2022/09/27 07:45:43;;;;;;;3.77;1.27;;;;;;;23.24;53.00;95837.91;5039726;28;20221;-31
2022/09/27 07:48:12;;;;;;;2.80;1.40;;;;;;;23.25;52.99;95841.34;5040824;28;20206;-31
2022/09/27 07:50:38;;;;;;;1.50;1.10;;;;;;;23.25;53.20;95842.22;5042786;28;20205;-31
2022/09/27 07:53:05;;;;;;;2.07;1.30;;;;;;;23.19;52.98;95829.38;5038923;28;20995;-31
2022/09/27 07:55:31;;;;;;;3.17;1.40;;;;;;;23.26;53.25;95843.91;5038066;28;20240;-31
2022/09/27 07:58:07;;;;;;;1.90;1.10;;;;;;;23.26;53.19;95845.59;5040676;28;20208;-30
2022/09/27 08:00:34;;;;;;;1.30;1.10;;;;;;;23.26;53.27;95851.59;5040616;28;20211;-31
2022/09/27 08:03:08;;;;;;;1.80;1.17;;;;;;;23.24;53.47;95843.03;5038119;28;20209;-31
2022/09/27 08:05:35;;;;;;;1.70;1.10;;;;;;;23.25;53.33;95857.59;5038068;28;20221;-31
2022/09/27 08:08:02;;;;;;;2.80;1.30;;;;;;;23.25;53.40;95862.72;5036800;28;20201;-31
2022/09/27 08:10:30;;;;;;;1.47;1.37;;;;;;;23.26;53.50;95864.41;5038411;28;20201;-31
2022/09/27 08:12:58;;;;;;;1.23;1.13;;;;;;;23.26;53.49;95863.53;5039725;28;20232;-31
2022/09/27 08:15:24;;;;;;;1.80;1.30;;;;;;;23.26;53.38;95872.09;5038857;28;20217;-31
2022/09/27 08:17:52;;;;;;;1.63;1.37;;;;;;;23.24;53.49;95865.28;5044004;28;20212;-31
2022/09/27 08:20:18;;;;;;;1.73;1.30;;;;;;;23.25;53.32;95877.22;5037610;28;20567;-31
2022/09/27 08:22:45;;;;;;;1.40;1.30;;;;;;;23.26;53.32;95878.91;5040557;28;20220;-31
2022/09/27 08:25:13;;;;;;;1.50;1.27;;;;;;;23.24;53.57;95878.94;5038369;28;20232;-31
2022/09/27 08:27:40;;;;;;;2.87;1.40;;;;;;;23.26;53.45;95892.59;5038850;28;20206;-31
2022/09/27 08:30:07;;;;;;;1.20;1.10;;;;;;;23.26;53.66;95894.31;5038048;28;20217;-31
2022/09/27 08:32:34;;;;;;;1.43;1.10;;;;;;;23.26;53.47;95895.16;5043599;28;20229;-31
2022/09/27 08:35:00;;;;;;;1.63;1.27;;;;;;;23.26;53.56;95897.72;5038919;28;20248;-31
2022/09/27 08:37:27;;;;;;;2.87;1.30;;;;;;;23.22;53.54;95890.88;5037951;28;20224;-31
2022/09/27 08:39:53;;;;;;;1.50;1.40;;;;;;;23.27;53.73;95904.56;5039489;28;20205;-31
2022/09/27 08:42:49;;;;;;;2.20;1.30;;;;;;;23.26;53.68;95905.41;5037851;28;20196;-31
2022/09/27 08:45:18;;;;;;;1.30;1.20;;;;;;;23.26;53.44;95902.00;5038815;28;20240;-31
2022/09/27 08:47:53;;;;;;;1.20;1.10;;;;;;;23.24;53.69;95898.59;5036590;28;20672;-31
2022/09/27 08:50:27;;;;;;;1.40;1.30;;;;;;;23.19;53.72;95896.03;5037503;28;20209;-31
2022/09/27 08:52:58;;;;;;;1.80;1.30;;;;;;;23.26;53.35;95912.25;5020908;28;20228;-31
2022/09/27 08:55:40;;;;;;;1.37;1.27;;;;;;;23.25;53.59;95916.53;5040995;28;20221;-31
2022/09/27 08:58:25;;;;;;;2.20;1.30;;;;;;;23.26;53.57;95920.78;5042319;28;20213;-31
2022/09/27 09:00:54;;;;;;;1.27;1.20;;;;;;;23.18;53.72;95908.84;5037524;28;20363;-31
2022/09/27 09:03:23;;;;;;;2.27;1.30;;;;;;;23.25;53.64;95929.34;5036123;28;20311;-31
2022/09/27 09:06:10;;;;;;;2.90;1.30;;;;;;;23.26;53.74;95940.44;5033503;28;20259;-31
2022/09/27 09:08:58;;;;;;;1.30;1.20;;;;;;;23.18;53.66;95930.16;5027818;28;20210;-31
2022/09/27 09:15:15;;;;;;;1.60;1.17;;;;;;;23.26;53.63;95951.56;5030592;28;20664;-31
2022/09/27 09:17:50;;;;;;;1.43;1.33;;;;;;;23.27;53.86;95952.41;5034186;28;20212;-31
2022/09/27 09:20:39;;;;;;;1.27;1.17;;;;;;;23.15;53.74;95934.47;5034919;28;20785;-31
2022/09/27 09:23:27;;;;;;;1.30;1.20;;;;;;;23.27;53.83;95954.97;5046199;28;20205;-31
2022/09/27 09:26:11;;;;;;;1.30;1.20;;;;;;;23.26;53.51;95960.94;5035501;28;20220;-31
2022/09/27 09:29:00;;;;;;;1.43;1.30;;;;;;;23.26;53.76;95954.13;5034703;28;20216;-31
2022/09/27 09:31:57;;;;;;;1.27;1.17;;;;;;;23.27;53.68;95949.84;5040526;28;21024;-31
2022/09/27 09:34:44;;;;;;;1.43;1.20;;;;;;;23.19;53.68;95936.16;5035960;28;20283;-31
2022/09/27 09:37:20;;;;;;;1.40;1.30;;;;;;;23.24;53.67;95945.56;5016524;28;20212;-31
2022/09/27 09:39:58;;;;;;;2.10;1.30;;;;;;;23.25;53.84;95944.72;5019019;28;20215;-31
2022/09/27 09:42:34;;;;;;;1.20;1.10;;;;;;;23.26;53.82;95943.00;5031702;28;20204;-31
2022/09/27 09:45:05;;;;;;;1.50;1.30;;;;;;;23.25;53.83;95929.34;5034258;28;20225;-31
2022/09/27 09:47:40;;;;;;;1.30;1.20;;;;;;;23.26;53.85;95930.19;5034229;28;20596;-31
2022/09/27 09:50:17;;;;;;;1.23;1.13;;;;;;;23.27;53.96;95929.34;5036572;28;20209;-31
2022/09/27 09:52:47;;;;;;;1.13;1.03;;;;;;;23.19;53.78;95918.22;5037642;28;20701;-31
2022/09/27 09:55:25;;;;;;;1.30;1.20;;;;;;;23.27;53.82;95942.16;5018457;28;20613;-31
2022/09/27 09:58:12;;;;;;;1.20;1.10;;;;;;;23.26;53.82;95931.06;5038267;28;20208;-31
2022/09/27 10:00:45;;;;;;;1.73;1.20;;;;;;;23.26;53.92;95918.22;5034162;28;20210;-31
2022/09/27 10:03:11;;;;;;;2.03;1.10;;;;;;;23.23;54.04;95915.66;5037864;28;20201;-31
2022/09/27 10:05:41;;;;;;;1.00;1.00;;;;;;;23.26;53.85;95927.63;5033758;28;20503;-31
2022/09/27 10:08:11;;;;;;;1.20;1.10;;;;;;;23.26;53.87;95927.63;5039475;28;20578;-31
2022/09/27 10:10:38;;;;;;;2.17;1.20;;;;;;;23.25;53.52;95934.47;5020625;28;20209;-31
2022/09/27 10:13:07;;;;;;;1.53;1.20;;;;;;;23.25;54.18;95947.28;5023327;28;20224;-31
2022/09/27 10:15:33;;;;;;;1.90;1.33;;;;;;;23.25;53.95;95957.53;5017667;28;20321;-31
2022/09/27 10:18:00;;;;;;;3.10;1.10;;;;;;;23.25;53.89;95952.41;5022098;28;20687;-31
2022/09/27 10:20:33;;;;;;;1.60;1.50;;;;;;;23.26;54.02;95945.56;5038698;28;20672;-31
2022/09/27 10:23:29;;;;;;;2.37;1.30;;;;;;;23.26;54.03;95940.44;5041913;28;20204;-31
2022/09/27 10:25:57;;;;;;;1.10;1.10;;;;;;;23.22;53.96;95937.00;5016206;28;20679;-31
2022/09/27 10:28:36;;;;;;;5.80;1.53;;;;;;;23.26;54.09;95954.13;5017548;28;20207;-31
2022/09/27 10:31:08;;;;;;;1.40;1.30;;;;;;;23.23;53.89;95951.53;5042420;28;20211;-31
2022/09/27 10:33:49;;;;;;;1.90;1.20;;;;;;;23.27;54.01;95960.94;5042672;28;20232;-31
2022/09/27 10:36:28;;;;;;;3.03;1.30;;;;;;;23.27;54.13;95955.81;5044364;28;20201;-31
2022/09/27 10:38:59;;;;;;;1.87;1.30;;;;;;;23.26;54.06;95966.06;5036944;28;20583;-31
2022/09/27 10:41:41;;;;;;;1.30;1.20;;;;;;;23.22;54.06;95952.38;5035356;28;20197;-31
2022/09/27 10:44:20;;;;;;;3.13;1.43;;;;;;;23.29;53.96;95963.50;5040859;28;20225;-31
2022/09/27 10:46:48;;;;;;;2.20;1.60;;;;;;;23.26;53.86;95972.06;5044635;28;20205;-31
2022/09/27 10:49:17;;;;;;;1.93;1.30;;;;;;;23.29;54.11;95973.75;5040092;28;20204;-31
2022/09/27 10:51:44;;;;;;;1.83;1.30;;;;;;;23.18;54.04;95966.03;5043180;28;20202;-31
2022/09/27 10:54:31;;;;;;;2.20;1.67;;;;;;;23.29;54.06;95992.56;5025453;28;20216;-31
2022/09/27 10:57:13;;;;;;;4.03;1.50;;;;;;;23.28;54.13;95998.56;5046020;28;20212;-31
2022/09/27 10:59:41;;;;;;;2.33;1.80;;;;;;;23.28;54.00;95988.28;5035946;28;20206;-31
2022/09/27 11:02:34;;;;;;;3.77;1.80;;;;;;;23.29;54.36;95990.00;5044419;28;20197;-31
2022/09/27 11:05:30;;;;;;;4.27;1.60;;;;;;;23.29;54.40;95990.00;5043548;28;20247;-31
2022/09/27 11:07:58;;;;;;;7.13;2.63;;;;;;;23.29;54.33;95989.13;5047191;28;20202;-31
2022/09/27 11:10:27;;;;;;;7.50;2.50;;;;;;;23.26;54.26;95981.44;5040642;28;20694;-31
2022/09/27 11:13:23;;;;;;;5.93;2.80;;;;;;;23.29;54.32;95979.75;5039102;28;20232;-31
2022/09/27 11:15:58;;;;;;;5.37;2.63;;;;;;;23.30;54.14;95978.03;5034791;28;20220;-31
2022/09/27 11:18:28;;;;;;;10.20;2.63;;;;;;;23.30;54.29;95975.47;5053955;28;20199;-31
2022/09/27 11:21:17;;;;;;;15.27;2.93;;;;;;;23.29;54.22;95969.50;5059242;28;20216;-31
2022/09/27 11:23:50;;;;;;;6.70;2.60;;;;;;;23.21;54.43;95962.66;5052167;28;20210;-31
2022/09/27 11:26:31;;;;;;;10.67;2.77;;;;;;;23.29;54.29;95963.50;5053631;28;20196;-31
2022/09/27 11:29:34;;;;;;;7.30;3.10;;;;;;;23.24;54.46;95944.72;5056886;28;20201;-31
2022/09/27 11:32:40;;;;;;;12.07;3.43;;;;;;;23.29;54.35;95966.91;5037147;28;20215;-31
2022/09/27 11:35:25;;;;;;;7.60;2.90;;;;;;;23.29;54.47;95963.50;5028557;28;20220;-31
2022/09/27 11:38:01;;;;;;;7.37;2.87;;;;;;;23.30;54.38;95957.53;5046147;28;20208;-31
2022/09/27 11:41:02;;;;;;;9.00;3.43;;;;;;;23.29;54.37;95951.53;5033912;28;20212;-31
2022/09/27 11:43:44;;;;;;;10.73;3.97;;;;;;;23.28;54.38;95952.41;5046827;28;20201;-31
2022/09/27 11:46:23;;;;;;;12.13;3.93;;;;;;;23.29;54.37;95953.25;5042034;28;20193;-31
2022/09/27 11:49:06;;;;;;;13.50;4.30;;;;;;;23.29;54.46;95961.78;5048297;28;20204;-31
2022/09/27 11:51:48;;;;;;;13.70;4.07;;;;;;;23.18;54.38;95940.41;5049820;28;20197;-31
2022/09/27 11:54:36;;;;;;;12.43;4.30;;;;;;;23.30;54.36;95972.91;5045895;28;20225;-31
2022/09/27 11:57:18;;;;;;;13.07;4.73;;;;;;;23.30;54.48;95972.91;5048946;28;20193;-31
2022/09/27 11:59:53;;;;;;;15.23;5.00;;;;;;;23.29;54.25;95969.50;5044258;28;20659;-31
2022/09/27 12:02:41;;;;;;;16.17;5.47;;;;;;;23.30;54.19;95968.63;5051093;28;20197;-31
2022/09/27 12:05:33;;;;;;;16.43;5.53;;;;;;;23.30;54.31;95966.06;5046130;28;20362;-31